sensor_id;sensor_type;location;lat;lon;timestamp;temperature;humidity
3001;DHT22;1510;51.072;6.678;2022-10-31T00:01:15;12.90;99.90
3001;DHT22;1510;51.072;6.678;2022-10-31T00:03:42;12.90;99.90
3001;DHT22;1510;51.072;6.678;2022-10-31T00:06:15;12.90;99.90
3001;DHT22;1510;51.072;6.678;2022-10-31T00:08:45;12.80;99.90
3001;DHT22;1510;51.072;6.678;2022-10-31T00:11:11;12.70;99.90
3001;DHT22;1510;51.072;6.678;2022-10-31T00:13:41;12.70;99.90
3001;DHT22;1510;51.072;6.678;2022-10-31T00:16:19;12.70;99.90
3001;DHT22;1510;51.072;6.678;2022-10-31T00:18:48;12.80;99.90
3001;DHT22;1510;51.072;6.678;2022-10-31T00:21:14;12.70;99.90
3001;DHT22;1510;51.072;6.678;2022-10-31T00:23:41;12.60;99.90
3001;DHT22;1510;51.072;6.678;2022-10-31T00:26:12;12.60;99.90
3001;DHT22;1510;51.072;6.678;2022-10-31T00:28:39;12.50;99.90
3001;DHT22;1510;51.072;6.678;2022-10-31T00:31:11;12.60;99.90
3001;DHT22;1510;51.072;6.678;2022-10-31T00:33:39;12.60;99.90
3001;DHT22;1510;51.072;6.678;2022-10-31T00:36:14;12.60;99.90
3001;DHT22;1510;51.072;6.678;2022-10-31T00:38:42;12.60;99.90
3001;DHT22;1510;51.072;6.678;2022-10-31T00:41:11;12.60;99.90
3001;DHT22;1510;51.072;6.678;2022-10-31T00:43:38;12.60;99.90
3001;DHT22;1510;51.072;6.678;2022-10-31T00:46:05;12.50;99.90
3001;DHT22;1510;51.072;6.678;2022-10-31T00:48:31;12.60;99.90
3001;DHT22;1510;51.072;6.678;2022-10-31T00:50:58;12.80;99.90
3001;DHT22;1510;51.072;6.678;2022-10-31T00:53:25;12.90;99.90
3001;DHT22;1510;51.072;6.678;2022-10-31T00:55:52;13.00;99.90
3001;DHT22;1510;51.072;6.678;2022-10-31T00:58:21;13.10;99.90
3001;DHT22;1510;51.072;6.678;2022-10-31T01:00:48;13.10;99.90
3001;DHT22;1510;51.072;6.678;2022-10-31T01:03:20;13.20;99.90
3001;DHT22;1510;51.072;6.678;2022-10-31T01:05:55;13.30;99.90
3001;DHT22;1510;51.072;6.678;2022-10-31T01:08:22;13.20;99.90
3001;DHT22;1510;51.072;6.678;2022-10-31T01:10:58;13.30;99.90
3001;DHT22;1510;51.072;6.678;2022-10-31T01:13:26;13.30;99.90
3001;DHT22;1510;51.072;6.678;2022-10-31T01:15:54;13.30;99.90
3001;DHT22;1510;51.072;6.678;2022-10-31T01:18:21;13.30;99.90
3001;DHT22;1510;51.072;6.678;2022-10-31T01:20:56;13.30;99.90
3001;DHT22;1510;51.072;6.678;2022-10-31T01:23:23;13.20;99.90
3001;DHT22;1510;51.072;6.678;2022-10-31T01:25:49;13.10;99.90
3001;DHT22;1510;51.072;6.678;2022-10-31T01:28:16;13.10;99.90
3001;DHT22;1510;51.072;6.678;2022-10-31T01:30:44;13.00;99.90
3001;DHT22;1510;51.072;6.678;2022-10-31T01:33:11;13.00;99.90
3001;DHT22;1510;51.072;6.678;2022-10-31T01:35:37;13.00;99.90
3001;DHT22;1510;51.072;6.678;2022-10-31T01:38:04;13.00;99.90
3001;DHT22;1510;51.072;6.678;2022-10-31T01:40:31;13.00;99.90
3001;DHT22;1510;51.072;6.678;2022-10-31T01:42:58;13.00;99.90
3001;DHT22;1510;51.072;6.678;2022-10-31T01:45:24;13.00;99.90
3001;DHT22;1510;51.072;6.678;2022-10-31T01:47:52;13.00;99.90
3001;DHT22;1510;51.072;6.678;2022-10-31T01:50:27;13.10;99.90
3001;DHT22;1510;51.072;6.678;2022-10-31T01:52:55;13.10;99.90
3001;DHT22;1510;51.072;6.678;2022-10-31T01:55:24;13.10;99.90
3001;DHT22;1510;51.072;6.678;2022-10-31T01:57:55;13.00;99.90
3001;DHT22;1510;51.072;6.678;2022-10-31T02:00:23;12.90;99.90
3001;DHT22;1510;51.072;6.678;2022-10-31T02:02:52;12.70;99.90
3001;DHT22;1510;51.072;6.678;2022-10-31T02:05:23;12.60;99.90
3001;DHT22;1510;51.072;6.678;2022-10-31T02:07:54;12.50;99.90
3001;DHT22;1510;51.072;6.678;2022-10-31T02:10:22;12.30;99.90
3001;DHT22;1510;51.072;6.678;2022-10-31T02:12:50;12.20;99.90
3001;DHT22;1510;51.072;6.678;2022-10-31T02:15:18;12.20;99.90
3001;DHT22;1510;51.072;6.678;2022-10-31T02:17:45;12.00;99.90
3001;DHT22;1510;51.072;6.678;2022-10-31T02:20:16;12.00;99.90
3001;DHT22;1510;51.072;6.678;2022-10-31T02:23:01;11.80;99.90
3001;DHT22;1510;51.072;6.678;2022-10-31T02:25:51;11.80;99.90
3001;DHT22;1510;51.072;6.678;2022-10-31T02:28:34;11.70;99.90
3001;DHT22;1510;51.072;6.678;2022-10-31T02:31:20;11.70;99.90
3001;DHT22;1510;51.072;6.678;2022-10-31T02:33:51;11.60;99.90
3001;DHT22;1510;51.072;6.678;2022-10-31T02:36:24;11.60;99.90
3001;DHT22;1510;51.072;6.678;2022-10-31T02:38:56;11.50;99.90
3001;DHT22;1510;51.072;6.678;2022-10-31T02:41:31;11.60;99.90
3001;DHT22;1510;51.072;6.678;2022-10-31T02:44:05;11.60;99.90
3001;DHT22;1510;51.072;6.678;2022-10-31T02:46:39;11.60;99.90
3001;DHT22;1510;51.072;6.678;2022-10-31T02:49:10;11.70;99.90
3001;DHT22;1510;51.072;6.678;2022-10-31T02:51:39;11.70;99.90
3001;DHT22;1510;51.072;6.678;2022-10-31T02:54:17;11.70;99.90
3001;DHT22;1510;51.072;6.678;2022-10-31T02:56:44;11.80;99.90
3001;DHT22;1510;51.072;6.678;2022-10-31T02:59:11;11.80;99.90
3001;DHT22;1510;51.072;6.678;2022-10-31T03:01:47;11.90;99.90
3001;DHT22;1510;51.072;6.678;2022-10-31T03:04:35;12.00;99.90
3001;DHT22;1510;51.072;6.678;2022-10-31T03:07:13;12.10;99.90
3001;DHT22;1510;51.072;6.678;2022-10-31T03:09:49;12.00;99.90
3001;DHT22;1510;51.072;6.678;2022-10-31T03:12:24;12.10;99.90
3001;DHT22;1510;51.072;6.678;2022-10-31T03:14:55;12.00;99.90
3001;DHT22;1510;51.072;6.678;2022-10-31T03:17:27;12.10;99.90
3001;DHT22;1510;51.072;6.678;2022-10-31T03:20:00;12.10;99.90
3001;DHT22;1510;51.072;6.678;2022-10-31T03:22:31;12.10;99.90
3001;DHT22;1510;51.072;6.678;2022-10-31T03:25:00;12.00;99.90
3001;DHT22;1510;51.072;6.678;2022-10-31T03:27:31;12.00;99.90
3001;DHT22;1510;51.072;6.678;2022-10-31T03:30:02;11.90;99.90
3001;DHT22;1510;51.072;6.678;2022-10-31T03:32:34;11.80;99.90
3001;DHT22;1510;51.072;6.678;2022-10-31T03:35:04;11.80;99.90
3001;DHT22;1510;51.072;6.678;2022-10-31T03:37:34;11.80;99.90
3001;DHT22;1510;51.072;6.678;2022-10-31T03:40:04;11.70;99.90
3001;DHT22;1510;51.072;6.678;2022-10-31T03:42:34;11.70;99.90
3001;DHT22;1510;51.072;6.678;2022-10-31T03:45:05;11.70;99.90
3001;DHT22;1510;51.072;6.678;2022-10-31T03:47:35;11.60;99.90
3001;DHT22;1510;51.072;6.678;2022-10-31T03:50:04;11.50;99.90
3001;DHT22;1510;51.072;6.678;2022-10-31T03:52:36;11.50;99.90
3001;DHT22;1510;51.072;6.678;2022-10-31T03:55:10;11.40;99.90
3001;DHT22;1510;51.072;6.678;2022-10-31T03:57:43;11.40;99.90
3001;DHT22;1510;51.072;6.678;2022-10-31T04:00:13;11.30;99.90
3001;DHT22;1510;51.072;6.678;2022-10-31T04:02:45;11.20;99.90
3001;DHT22;1510;51.072;6.678;2022-10-31T04:05:13;11.10;99.90
3001;DHT22;1510;51.072;6.678;2022-10-31T04:07:44;11.00;99.90
3001;DHT22;1510;51.072;6.678;2022-10-31T04:10:14;11.00;99.90
3001;DHT22;1510;51.072;6.678;2022-10-31T04:12:45;10.90;99.90
3001;DHT22;1510;51.072;6.678;2022-10-31T04:15:14;10.90;99.90
3001;DHT22;1510;51.072;6.678;2022-10-31T04:17:44;10.70;99.90
3001;DHT22;1510;51.072;6.678;2022-10-31T04:20:15;10.70;99.90
3001;DHT22;1510;51.072;6.678;2022-10-31T04:22:42;10.60;99.90
3001;DHT22;1510;51.072;6.678;2022-10-31T04:25:09;10.50;99.90
3001;DHT22;1510;51.072;6.678;2022-10-31T04:27:35;10.50;99.90
3001;DHT22;1510;51.072;6.678;2022-10-31T04:30:03;10.50;99.90
3001;DHT22;1510;51.072;6.678;2022-10-31T04:32:29;10.50;99.90
3001;DHT22;1510;51.072;6.678;2022-10-31T04:34:57;10.50;99.90
3001;DHT22;1510;51.072;6.678;2022-10-31T04:37:24;10.40;99.90
3001;DHT22;1510;51.072;6.678;2022-10-31T04:39:51;10.40;99.90
3001;DHT22;1510;51.072;6.678;2022-10-31T04:42:17;10.30;99.90
3001;DHT22;1510;51.072;6.678;2022-10-31T04:44:44;10.40;99.90
3001;DHT22;1510;51.072;6.678;2022-10-31T04:47:11;10.50;99.90
3001;DHT22;1510;51.072;6.678;2022-10-31T04:49:38;10.50;99.90
3001;DHT22;1510;51.072;6.678;2022-10-31T04:52:06;10.50;99.90
3001;DHT22;1510;51.072;6.678;2022-10-31T04:54:33;10.50;99.90
3001;DHT22;1510;51.072;6.678;2022-10-31T04:57:00;10.50;99.90
3001;DHT22;1510;51.072;6.678;2022-10-31T04:59:26;10.50;99.90
3001;DHT22;1510;51.072;6.678;2022-10-31T05:01:53;10.60;99.90
3001;DHT22;1510;51.072;6.678;2022-10-31T05:04:20;10.70;99.90
3001;DHT22;1510;51.072;6.678;2022-10-31T05:06:47;10.80;99.90
3001;DHT22;1510;51.072;6.678;2022-10-31T05:09:15;10.70;99.90
3001;DHT22;1510;51.072;6.678;2022-10-31T05:11:42;10.80;99.90
3001;DHT22;1510;51.072;6.678;2022-10-31T05:14:08;10.90;99.90
3001;DHT22;1510;51.072;6.678;2022-10-31T05:16:35;10.80;99.90
3001;DHT22;1510;51.072;6.678;2022-10-31T05:19:02;10.90;99.90
3001;DHT22;1510;51.072;6.678;2022-10-31T05:21:28;10.90;99.90
3001;DHT22;1510;51.072;6.678;2022-10-31T05:23:55;10.90;99.90
3001;DHT22;1510;51.072;6.678;2022-10-31T05:26:23;10.90;99.90
3001;DHT22;1510;51.072;6.678;2022-10-31T05:28:50;10.90;99.90
3001;DHT22;1510;51.072;6.678;2022-10-31T05:31:17;10.90;99.90
3001;DHT22;1510;51.072;6.678;2022-10-31T05:33:43;10.90;99.90
3001;DHT22;1510;51.072;6.678;2022-10-31T05:36:10;10.80;99.90
3001;DHT22;1510;51.072;6.678;2022-10-31T05:38:37;10.80;99.90
3001;DHT22;1510;51.072;6.678;2022-10-31T05:41:04;10.60;99.90
3001;DHT22;1510;51.072;6.678;2022-10-31T05:43:32;10.60;99.90
3001;DHT22;1510;51.072;6.678;2022-10-31T05:45:58;10.60;99.90
3001;DHT22;1510;51.072;6.678;2022-10-31T05:48:25;10.60;99.90
3001;DHT22;1510;51.072;6.678;2022-10-31T05:50:52;10.50;99.90
3001;DHT22;1510;51.072;6.678;2022-10-31T05:53:18;10.50;99.90
3001;DHT22;1510;51.072;6.678;2022-10-31T05:55:46;10.50;99.90
3001;DHT22;1510;51.072;6.678;2022-10-31T05:58:13;10.50;99.90
3001;DHT22;1510;51.072;6.678;2022-10-31T06:00:41;10.40;99.90
3001;DHT22;1510;51.072;6.678;2022-10-31T06:03:11;10.40;99.90
3001;DHT22;1510;51.072;6.678;2022-10-31T06:05:42;10.40;99.90
3001;DHT22;1510;51.072;6.678;2022-10-31T06:08:11;10.30;99.90
3001;DHT22;1510;51.072;6.678;2022-10-31T06:10:40;10.30;99.90
3001;DHT22;1510;51.072;6.678;2022-10-31T06:13:09;10.30;99.90
3001;DHT22;1510;51.072;6.678;2022-10-31T06:15:36;10.20;99.90
3001;DHT22;1510;51.072;6.678;2022-10-31T06:18:05;10.30;99.90
3001;DHT22;1510;51.072;6.678;2022-10-31T06:20:32;10.30;99.90
3001;DHT22;1510;51.072;6.678;2022-10-31T06:22:59;10.30;99.90
3001;DHT22;1510;51.072;6.678;2022-10-31T06:25:27;10.20;99.90
3001;DHT22;1510;51.072;6.678;2022-10-31T06:27:54;10.30;99.90
3001;DHT22;1510;51.072;6.678;2022-10-31T06:30:21;10.30;99.90
3001;DHT22;1510;51.072;6.678;2022-10-31T06:32:47;10.30;99.90
3001;DHT22;1510;51.072;6.678;2022-10-31T06:35:16;10.20;99.90
3001;DHT22;1510;51.072;6.678;2022-10-31T06:37:50;10.30;99.90
3001;DHT22;1510;51.072;6.678;2022-10-31T06:40:16;10.40;99.90
3001;DHT22;1510;51.072;6.678;2022-10-31T06:42:43;10.40;99.90
3001;DHT22;1510;51.072;6.678;2022-10-31T06:45:10;10.40;99.90
3001;DHT22;1510;51.072;6.678;2022-10-31T06:47:36;10.50;99.90
3001;DHT22;1510;51.072;6.678;2022-10-31T06:50:04;10.50;99.90
3001;DHT22;1510;51.072;6.678;2022-10-31T06:52:32;10.60;99.90
3001;DHT22;1510;51.072;6.678;2022-10-31T06:54:58;10.70;99.90
3001;DHT22;1510;51.072;6.678;2022-10-31T06:57:25;10.60;99.90
3001;DHT22;1510;51.072;6.678;2022-10-31T06:59:52;10.70;99.90
3001;DHT22;1510;51.072;6.678;2022-10-31T07:02:18;10.70;99.90
3001;DHT22;1510;51.072;6.678;2022-10-31T07:04:45;10.70;99.90
3001;DHT22;1510;51.072;6.678;2022-10-31T07:07:12;10.70;99.90
3001;DHT22;1510;51.072;6.678;2022-10-31T07:09:40;10.80;99.90
3001;DHT22;1510;51.072;6.678;2022-10-31T07:12:06;10.90;99.90
3001;DHT22;1510;51.072;6.678;2022-10-31T07:14:33;10.90;99.90
3001;DHT22;1510;51.072;6.678;2022-10-31T07:17:00;10.90;99.90
3001;DHT22;1510;51.072;6.678;2022-10-31T07:19:26;10.90;99.90
3001;DHT22;1510;51.072;6.678;2022-10-31T07:21:53;11.00;99.90
3001;DHT22;1510;51.072;6.678;2022-10-31T07:24:20;11.10;99.90
3001;DHT22;1510;51.072;6.678;2022-10-31T07:26:48;11.10;99.90
3001;DHT22;1510;51.072;6.678;2022-10-31T07:29:15;11.20;99.90
3001;DHT22;1510;51.072;6.678;2022-10-31T07:31:41;11.20;99.90
3001;DHT22;1510;51.072;6.678;2022-10-31T07:34:09;11.30;99.90
3001;DHT22;1510;51.072;6.678;2022-10-31T07:36:36;11.30;99.90
3001;DHT22;1510;51.072;6.678;2022-10-31T07:39:02;11.40;99.90
3001;DHT22;1510;51.072;6.678;2022-10-31T07:41:29;11.50;99.90
3001;DHT22;1510;51.072;6.678;2022-10-31T07:43:57;11.50;99.90
3001;DHT22;1510;51.072;6.678;2022-10-31T07:46:24;11.60;99.90
3001;DHT22;1510;51.072;6.678;2022-10-31T07:48:51;11.60;99.90
3001;DHT22;1510;51.072;6.678;2022-10-31T07:51:17;11.70;99.90
3001;DHT22;1510;51.072;6.678;2022-10-31T07:53:44;11.80;99.90
3001;DHT22;1510;51.072;6.678;2022-10-31T07:56:11;11.90;99.90
3001;DHT22;1510;51.072;6.678;2022-10-31T07:58:38;12.00;99.90
3001;DHT22;1510;51.072;6.678;2022-10-31T08:01:06;12.10;99.90
3001;DHT22;1510;51.072;6.678;2022-10-31T08:03:32;12.20;99.90
3001;DHT22;1510;51.072;6.678;2022-10-31T08:05:59;12.30;99.90
3001;DHT22;1510;51.072;6.678;2022-10-31T08:08:26;12.40;99.90
3001;DHT22;1510;51.072;6.678;2022-10-31T08:10:54;12.40;99.90
3001;DHT22;1510;51.072;6.678;2022-10-31T08:13:21;12.50;99.90
3001;DHT22;1510;51.072;6.678;2022-10-31T08:15:48;12.60;99.90
3001;DHT22;1510;51.072;6.678;2022-10-31T08:18:17;12.60;99.90
3001;DHT22;1510;51.072;6.678;2022-10-31T08:20:44;12.70;99.90
3001;DHT22;1510;51.072;6.678;2022-10-31T08:23:12;12.80;99.90
3001;DHT22;1510;51.072;6.678;2022-10-31T08:25:39;12.90;99.90
3001;DHT22;1510;51.072;6.678;2022-10-31T08:28:09;13.00;99.90
3001;DHT22;1510;51.072;6.678;2022-10-31T08:30:37;13.10;99.90
3001;DHT22;1510;51.072;6.678;2022-10-31T08:33:05;13.10;99.90
3001;DHT22;1510;51.072;6.678;2022-10-31T08:35:34;13.30;99.90
3001;DHT22;1510;51.072;6.678;2022-10-31T08:38:01;13.30;99.90
3001;DHT22;1510;51.072;6.678;2022-10-31T08:40:29;13.40;99.90
3001;DHT22;1510;51.072;6.678;2022-10-31T08:42:57;13.40;99.90
3001;DHT22;1510;51.072;6.678;2022-10-31T08:45:24;13.60;99.90
3001;DHT22;1510;51.072;6.678;2022-10-31T08:47:51;13.70;99.90
3001;DHT22;1510;51.072;6.678;2022-10-31T08:50:18;13.80;99.90
3001;DHT22;1510;51.072;6.678;2022-10-31T08:52:46;14.00;99.90
3001;DHT22;1510;51.072;6.678;2022-10-31T08:55:13;14.10;99.90
3001;DHT22;1510;51.072;6.678;2022-10-31T08:57:40;14.20;99.90
3001;DHT22;1510;51.072;6.678;2022-10-31T09:00:08;14.40;99.90
3001;DHT22;1510;51.072;6.678;2022-10-31T09:02:34;14.60;99.90
3001;DHT22;1510;51.072;6.678;2022-10-31T09:05:02;14.70;99.90
3001;DHT22;1510;51.072;6.678;2022-10-31T09:07:29;14.80;99.90
3001;DHT22;1510;51.072;6.678;2022-10-31T09:09:57;15.00;99.90
3001;DHT22;1510;51.072;6.678;2022-10-31T09:12:24;15.00;99.90
3001;DHT22;1510;51.072;6.678;2022-10-31T09:14:51;15.20;99.90
3001;DHT22;1510;51.072;6.678;2022-10-31T09:17:17;15.30;99.90
3001;DHT22;1510;51.072;6.678;2022-10-31T09:19:45;15.50;99.90
3001;DHT22;1510;51.072;6.678;2022-10-31T09:22:12;15.60;99.90
3001;DHT22;1510;51.072;6.678;2022-10-31T09:24:38;15.50;99.90
3001;DHT22;1510;51.072;6.678;2022-10-31T09:27:06;15.60;99.90
3001;DHT22;1510;51.072;6.678;2022-10-31T09:29:34;15.60;99.90
3001;DHT22;1510;51.072;6.678;2022-10-31T09:32:01;15.70;99.90
3001;DHT22;1510;51.072;6.678;2022-10-31T09:34:28;15.50;99.90
3001;DHT22;1510;51.072;6.678;2022-10-31T09:36:54;15.40;99.90
3001;DHT22;1510;51.072;6.678;2022-10-31T09:39:21;15.50;99.90
3001;DHT22;1510;51.072;6.678;2022-10-31T09:42:02;15.80;99.90
3001;DHT22;1510;51.072;6.678;2022-10-31T09:44:41;15.90;99.90
3001;DHT22;1510;51.072;6.678;2022-10-31T09:47:18;16.30;99.90
3001;DHT22;1510;51.072;6.678;2022-10-31T09:50:00;16.10;99.90
3001;DHT22;1510;51.072;6.678;2022-10-31T09:52:30;16.30;99.90
3001;DHT22;1510;51.072;6.678;2022-10-31T09:55:02;16.40;99.90
3001;DHT22;1510;51.072;6.678;2022-10-31T09:57:33;16.50;99.90
3001;DHT22;1510;51.072;6.678;2022-10-31T10:00:04;16.60;99.90
3001;DHT22;1510;51.072;6.678;2022-10-31T10:02:35;17.00;99.60
3001;DHT22;1510;51.072;6.678;2022-10-31T10:05:05;17.20;97.90
3001;DHT22;1510;51.072;6.678;2022-10-31T10:07:40;17.60;97.70
3001;DHT22;1510;51.072;6.678;2022-10-31T10:10:14;18.20;96.70
3001;DHT22;1510;51.072;6.678;2022-10-31T10:12:55;18.00;94.80
3001;DHT22;1510;51.072;6.678;2022-10-31T10:15:51;17.90;94.90
3001;DHT22;1510;51.072;6.678;2022-10-31T10:18:30;17.80;95.40
3001;DHT22;1510;51.072;6.678;2022-10-31T10:21:06;17.70;94.10
3001;DHT22;1510;51.072;6.678;2022-10-31T10:23:43;17.70;94.80
3001;DHT22;1510;51.072;6.678;2022-10-31T10:26:17;17.60;95.20
3001;DHT22;1510;51.072;6.678;2022-10-31T10:28:47;17.50;94.60
3001;DHT22;1510;51.072;6.678;2022-10-31T10:31:20;17.40;94.90
3001;DHT22;1510;51.072;6.678;2022-10-31T10:33:58;17.60;95.00
3001;DHT22;1510;51.072;6.678;2022-10-31T10:36:31;18.00;95.00
3001;DHT22;1510;51.072;6.678;2022-10-31T10:39:04;17.90;94.20
3001;DHT22;1510;51.072;6.678;2022-10-31T10:41:33;18.00;94.60
3001;DHT22;1510;51.072;6.678;2022-10-31T10:43:59;18.00;94.30
3001;DHT22;1510;51.072;6.678;2022-10-31T10:46:44;18.40;93.80
3001;DHT22;1510;51.072;6.678;2022-10-31T10:49:35;18.80;92.70
3001;DHT22;1510;51.072;6.678;2022-10-31T10:52:13;19.30;92.60
3001;DHT22;1510;51.072;6.678;2022-10-31T10:55:00;19.70;91.50
3001;DHT22;1510;51.072;6.678;2022-10-31T10:57:40;20.00;91.00
3001;DHT22;1510;51.072;6.678;2022-10-31T11:00:22;19.70;90.50
3001;DHT22;1510;51.072;6.678;2022-10-31T11:02:51;19.50;89.60
3001;DHT22;1510;51.072;6.678;2022-10-31T11:05:30;19.50;90.10
3001;DHT22;1510;51.072;6.678;2022-10-31T11:07:59;19.50;90.20
3001;DHT22;1510;51.072;6.678;2022-10-31T11:10:26;19.80;90.60
3001;DHT22;1510;51.072;6.678;2022-10-31T11:13:04;19.80;89.10
3001;DHT22;1510;51.072;6.678;2022-10-31T11:15:35;19.90;89.90
3001;DHT22;1510;51.072;6.678;2022-10-31T11:18:04;20.00;88.20
3001;DHT22;1510;51.072;6.678;2022-10-31T11:20:32;19.90;90.00
3001;DHT22;1510;51.072;6.678;2022-10-31T11:23:17;19.80;89.40
3001;DHT22;1510;51.072;6.678;2022-10-31T11:25:52;19.90;87.90
3001;DHT22;1510;51.072;6.678;2022-10-31T11:28:20;19.90;88.20
3001;DHT22;1510;51.072;6.678;2022-10-31T11:30:48;20.20;88.80
3001;DHT22;1510;51.072;6.678;2022-10-31T11:33:24;20.20;88.40
3001;DHT22;1510;51.072;6.678;2022-10-31T11:35:53;20.20;88.40
3001;DHT22;1510;51.072;6.678;2022-10-31T11:38:24;20.00;88.40
3001;DHT22;1510;51.072;6.678;2022-10-31T11:40:53;19.90;87.60
3001;DHT22;1510;51.072;6.678;2022-10-31T11:43:21;19.90;88.10
3001;DHT22;1510;51.072;6.678;2022-10-31T11:45:48;19.70;85.80
3001;DHT22;1510;51.072;6.678;2022-10-31T11:48:17;19.70;86.30
3001;DHT22;1510;51.072;6.678;2022-10-31T11:50:48;19.90;86.00
3001;DHT22;1510;51.072;6.678;2022-10-31T11:53:17;20.10;86.20
3001;DHT22;1510;51.072;6.678;2022-10-31T11:55:45;20.10;84.20
3001;DHT22;1510;51.072;6.678;2022-10-31T11:58:21;20.10;86.20
3001;DHT22;1510;51.072;6.678;2022-10-31T12:00:50;20.30;86.30
3001;DHT22;1510;51.072;6.678;2022-10-31T12:03:36;20.80;84.80
3001;DHT22;1510;51.072;6.678;2022-10-31T12:06:09;21.00;83.30
3001;DHT22;1510;51.072;6.678;2022-10-31T12:08:38;21.20;81.40
3001;DHT22;1510;51.072;6.678;2022-10-31T12:11:13;20.60;78.70
3001;DHT22;1510;51.072;6.678;2022-10-31T12:13:53;20.70;83.10
3001;DHT22;1510;51.072;6.678;2022-10-31T12:16:30;21.10;80.90
3001;DHT22;1510;51.072;6.678;2022-10-31T12:19:02;21.30;79.40
3001;DHT22;1510;51.072;6.678;2022-10-31T12:21:45;21.50;77.80
3001;DHT22;1510;51.072;6.678;2022-10-31T12:24:26;21.70;75.10
3001;DHT22;1510;51.072;6.678;2022-10-31T12:27:05;21.60;74.90
3001;DHT22;1510;51.072;6.678;2022-10-31T12:29:55;21.50;75.40
3001;DHT22;1510;51.072;6.678;2022-10-31T12:32:31;21.40;74.60
3001;DHT22;1510;51.072;6.678;2022-10-31T12:35:21;21.40;75.80
3001;DHT22;1510;51.072;6.678;2022-10-31T12:38:03;21.40;75.50
3001;DHT22;1510;51.072;6.678;2022-10-31T12:40:43;21.20;75.10
3001;DHT22;1510;51.072;6.678;2022-10-31T12:43:24;20.80;77.10
3001;DHT22;1510;51.072;6.678;2022-10-31T12:45:54;20.10;77.40
3001;DHT22;1510;51.072;6.678;2022-10-31T12:48:59;19.90;78.30
3001;DHT22;1510;51.072;6.678;2022-10-31T12:51:36;19.60;81.80
3001;DHT22;1510;51.072;6.678;2022-10-31T12:54:19;19.40;83.30
3001;DHT22;1510;51.072;6.678;2022-10-31T12:56:54;19.30;85.40
3001;DHT22;1510;51.072;6.678;2022-10-31T12:59:29;19.10;83.90
3001;DHT22;1510;51.072;6.678;2022-10-31T13:02:01;19.00;85.10
3001;DHT22;1510;51.072;6.678;2022-10-31T13:04:40;19.00;85.20
3001;DHT22;1510;51.072;6.678;2022-10-31T13:07:12;18.90;86.00
3001;DHT22;1510;51.072;6.678;2022-10-31T13:09:47;18.90;85.70
3001;DHT22;1510;51.072;6.678;2022-10-31T13:12:18;18.80;85.00
3001;DHT22;1510;51.072;6.678;2022-10-31T13:14:48;18.80;85.00
3001;DHT22;1510;51.072;6.678;2022-10-31T13:17:22;18.80;85.00
3001;DHT22;1510;51.072;6.678;2022-10-31T13:19:53;18.80;85.00
3001;DHT22;1510;51.072;6.678;2022-10-31T13:22:22;18.70;85.40
3001;DHT22;1510;51.072;6.678;2022-10-31T13:24:55;18.80;86.20
3001;DHT22;1510;51.072;6.678;2022-10-31T13:27:26;18.80;85.00
3001;DHT22;1510;51.072;6.678;2022-10-31T13:30:00;18.90;85.90
3001;DHT22;1510;51.072;6.678;2022-10-31T13:32:30;19.00;85.10
3001;DHT22;1510;51.072;6.678;2022-10-31T13:35:04;19.10;85.30
3001;DHT22;1510;51.072;6.678;2022-10-31T13:37:39;19.00;85.10
3001;DHT22;1510;51.072;6.678;2022-10-31T13:40:14;19.00;85.10
3001;DHT22;1510;51.072;6.678;2022-10-31T13:42:54;18.90;84.20
3001;DHT22;1510;51.072;6.678;2022-10-31T13:45:24;18.90;85.10
3001;DHT22;1510;51.072;6.678;2022-10-31T13:48:17;19.10;85.20
3001;DHT22;1510;51.072;6.678;2022-10-31T13:50:56;19.10;85.30
3001;DHT22;1510;51.072;6.678;2022-10-31T13:53:41;19.00;85.20
3001;DHT22;1510;51.072;6.678;2022-10-31T13:56:19;19.00;85.10
3001;DHT22;1510;51.072;6.678;2022-10-31T13:59:03;19.00;86.50
3001;DHT22;1510;51.072;6.678;2022-10-31T14:01:31;19.00;85.90
3001;DHT22;1510;51.072;6.678;2022-10-31T14:04:06;19.00;85.20
3001;DHT22;1510;51.072;6.678;2022-10-31T14:06:39;18.90;85.10
3001;DHT22;1510;51.072;6.678;2022-10-31T14:09:19;19.00;85.20
3001;DHT22;1510;51.072;6.678;2022-10-31T14:11:48;19.00;84.60
3001;DHT22;1510;51.072;6.678;2022-10-31T14:14:17;18.90;85.10
3001;DHT22;1510;51.072;6.678;2022-10-31T14:16:46;19.00;85.10
3001;DHT22;1510;51.072;6.678;2022-10-31T14:19:19;18.80;83.90
3001;DHT22;1510;51.072;6.678;2022-10-31T14:21:48;18.70;84.90
3001;DHT22;1510;51.072;6.678;2022-10-31T14:24:29;18.60;84.80
3001;DHT22;1510;51.072;6.678;2022-10-31T14:26:59;18.50;86.00
3001;DHT22;1510;51.072;6.678;2022-10-31T14:29:27;18.40;87.50
3001;DHT22;1510;51.072;6.678;2022-10-31T14:31:57;18.30;86.60
3001;DHT22;1510;51.072;6.678;2022-10-31T14:34:27;18.20;88.40
3001;DHT22;1510;51.072;6.678;2022-10-31T14:37:25;18.20;88.30
3001;DHT22;1510;51.072;6.678;2022-10-31T14:40:07;18.10;87.20
3001;DHT22;1510;51.072;6.678;2022-10-31T14:42:51;18.00;87.00
3001;DHT22;1510;51.072;6.678;2022-10-31T14:45:27;18.10;88.30
3001;DHT22;1510;51.072;6.678;2022-10-31T14:48:08;18.10;87.70
3001;DHT22;1510;51.072;6.678;2022-10-31T14:50:42;18.10;88.40
3001;DHT22;1510;51.072;6.678;2022-10-31T14:53:18;18.00;89.00
3001;DHT22;1510;51.072;6.678;2022-10-31T14:55:48;18.00;89.40
3001;DHT22;1510;51.072;6.678;2022-10-31T14:58:20;18.00;89.00
3001;DHT22;1510;51.072;6.678;2022-10-31T15:00:48;17.90;88.70
3001;DHT22;1510;51.072;6.678;2022-10-31T15:03:16;17.90;89.00
3001;DHT22;1510;51.072;6.678;2022-10-31T15:05:48;17.90;89.60
3001;DHT22;1510;51.072;6.678;2022-10-31T15:08:29;17.90;89.60
3001;DHT22;1510;51.072;6.678;2022-10-31T15:10:56;17.90;89.20
3001;DHT22;1510;51.072;6.678;2022-10-31T15:13:24;18.00;90.20
3001;DHT22;1510;51.072;6.678;2022-10-31T15:15:53;18.10;88.70
3001;DHT22;1510;51.072;6.678;2022-10-31T15:18:23;18.00;87.80
3001;DHT22;1510;51.072;6.678;2022-10-31T15:20:52;18.00;88.70
3001;DHT22;1510;51.072;6.678;2022-10-31T15:23:23;18.00;88.90
3001;DHT22;1510;51.072;6.678;2022-10-31T15:25:58;17.80;89.00
3001;DHT22;1510;51.072;6.678;2022-10-31T15:28:26;17.70;90.10
3001;DHT22;1510;51.072;6.678;2022-10-31T15:30:56;17.50;90.50
3001;DHT22;1510;51.072;6.678;2022-10-31T15:33:24;17.50;90.60
3001;DHT22;1510;51.072;6.678;2022-10-31T15:35:56;17.40;90.90
3001;DHT22;1510;51.072;6.678;2022-10-31T15:38:23;17.30;90.90
3001;DHT22;1510;51.072;6.678;2022-10-31T15:40:53;17.30;91.00
3001;DHT22;1510;51.072;6.678;2022-10-31T15:43:21;17.30;91.20
3001;DHT22;1510;51.072;6.678;2022-10-31T15:45:49;17.30;90.80
3001;DHT22;1510;51.072;6.678;2022-10-31T15:48:17;17.20;90.90
3001;DHT22;1510;51.072;6.678;2022-10-31T15:50:47;17.20;91.00
3001;DHT22;1510;51.072;6.678;2022-10-31T15:53:17;17.10;91.00
3001;DHT22;1510;51.072;6.678;2022-10-31T15:55:48;17.10;91.20
3001;DHT22;1510;51.072;6.678;2022-10-31T15:58:16;17.10;91.30
3001;DHT22;1510;51.072;6.678;2022-10-31T16:00:43;17.00;91.60
3001;DHT22;1510;51.072;6.678;2022-10-31T16:03:23;17.00;91.60
3001;DHT22;1510;51.072;6.678;2022-10-31T16:05:52;16.90;91.90
3001;DHT22;1510;51.072;6.678;2022-10-31T16:08:31;16.80;92.00
3001;DHT22;1510;51.072;6.678;2022-10-31T16:11:00;16.70;92.40
3001;DHT22;1510;51.072;6.678;2022-10-31T16:13:30;16.70;92.60
3001;DHT22;1510;51.072;6.678;2022-10-31T16:16:00;16.60;93.10
3001;DHT22;1510;51.072;6.678;2022-10-31T16:18:34;16.40;93.10
3001;DHT22;1510;51.072;6.678;2022-10-31T16:21:02;16.40;93.20
3001;DHT22;1510;51.072;6.678;2022-10-31T16:23:29;16.40;93.60
3001;DHT22;1510;51.072;6.678;2022-10-31T16:25:56;16.40;93.60